Time;durP1;ratioP1;P1;durP2;ratioP2;P2;SDS_P1;SDS_P2;PMS_P1;PMS_P2;Temp;Humidity;BMP_temperature;BMP_pressure;BME280_temperature;BME280_humidity;BME280_pressure;Samples;Min_cycle;Max_cycle;Signal;HPM_P1;HPM_P2
2022/05/27 00:01:28;;;;;;;18.35;4.15;;;14.60;99.90;;;;;;4993974;28;20464;-56
2022/05/27 00:03:56;;;;;;;22.73;4.32;;;14.60;99.90;;;;;;4990851;28;20091;-55
2022/05/27 00:06:22;;;;;;;18.83;3.60;;;14.60;99.90;;;;;;4996555;28;20508;-55
2022/05/27 00:08:48;;;;;;;17.25;3.60;;;14.60;99.90;;;;;;5000645;28;20049;-57
2022/05/27 00:11:14;;;;;;;17.08;3.97;;;14.60;99.90;;;;;;4996512;28;20045;-56
2022/05/27 00:13:40;;;;;;;19.60;4.32;;;14.50;99.90;;;;;;4996884;28;20256;-57
2022/05/27 00:16:07;;;;;;;13.75;3.58;;;14.50;99.90;;;;;;4991996;28;20054;-55
2022/05/27 00:18:33;;;;;;;11.95;3.15;;;14.50;99.90;;;;;;4988697;28;20428;-55
2022/05/27 00:20:59;;;;;;;21.30;4.35;;;14.40;99.90;;;;;;4992699;28;20048;-56
2022/05/27 00:23:25;;;;;;;16.00;4.13;;;14.40;99.90;;;;;;4996563;28;20088;-56
2022/05/27 00:25:50;;;;;;;18.77;4.60;;;14.30;99.90;;;;;;4990121;28;20042;-56
2022/05/27 00:28:16;;;;;;;17.40;3.60;;;14.30;99.90;;;;;;4995379;28;20117;-54
2022/05/27 00:30:42;;;;;;;16.65;3.92;;;14.20;99.90;;;;;;4984185;28;20076;-56
2022/05/27 00:33:10;;;;;;;16.35;3.88;;;14.10;99.90;;;;;;5009114;28;20085;-54
2022/05/27 00:35:36;;;;;;;15.90;3.72;;;14.20;99.90;;;;;;4969726;28;20511;-55
2022/05/27 00:38:02;;;;;;;15.77;4.18;;;14.10;99.90;;;;;;4994787;28;20371;-54
2022/05/27 00:40:36;;;;;;;21.48;4.00;;;14.10;99.90;;;;;;4977950;28;20047;-55
2022/05/27 00:43:02;;;;;;;13.20;3.75;;;14.10;99.90;;;;;;4993231;28;20100;-56
2022/05/27 00:45:28;;;;;;;17.02;4.18;;;14.00;99.90;;;;;;4992589;28;20050;-56
2022/05/27 00:47:57;;;;;;;18.52;4.22;;;14.00;99.90;;;;;;4997696;28;20042;-55
2022/05/27 00:50:44;;;;;;;21.65;4.88;;;14.00;99.90;;;;;;4992986;28;20053;-57
2022/05/27 00:53:13;;;;;;;15.93;3.92;;;14.00;99.90;;;;;;4985500;28;20525;-55
2022/05/27 00:55:45;;;;;;;18.63;4.05;;;13.90;99.90;;;;;;4989613;28;20052;-56
2022/05/27 00:58:20;;;;;;;19.33;4.35;;;13.90;99.90;;;;;;4989103;28;20347;-55
2022/05/27 01:00:47;;;;;;;15.63;4.03;;;13.80;99.90;;;;;;4994847;28;20033;-56
2022/05/27 01:03:15;;;;;;;18.60;4.45;;;13.80;99.90;;;;;;4999480;28;20132;-57
2022/05/27 01:05:45;;;;;;;19.00;4.30;;;13.70;99.90;;;;;;4993942;28;20056;-56
2022/05/27 01:08:13;;;;;;;14.60;3.65;;;13.70;99.90;;;;;;5001647;28;20038;-56
2022/05/27 01:11:05;;;;;;;18.40;4.38;;;13.70;99.90;;;;;;4982381;28;20034;-56
2022/05/27 01:13:46;;;;;;;14.43;4.28;;;13.60;99.90;;;;;;4985580;28;20125;-56
2022/05/27 01:16:27;;;;;;;23.08;4.28;;;13.60;99.90;;;;;;4981325;28;20114;-56
2022/05/27 01:22:17;;;;;;;11.50;3.15;;;13.50;99.90;;;;;;4993133;28;20484;-53
2022/05/27 01:25:27;;;;;;;18.40;3.30;;;13.40;99.90;;;;;;4968166;28;20037;-56
2022/05/27 01:28:30;;;;;;;16.83;3.15;;;13.30;99.90;;;;;;4976643;28;20500;-57
2022/05/27 01:31:40;;;;;;;19.75;3.67;;;13.40;99.90;;;;;;4999410;28;20034;-56
2022/05/27 01:34:24;;;;;;;15.25;3.50;;;13.40;99.90;;;;;;4992343;28;20397;-53
2022/05/27 01:37:09;;;;;;;;;;;13.30;99.90;;;;;;4992369;28;20052;-57
2022/05/27 01:39:52;;;;;;;16.50;2.95;;;13.30;99.90;;;;;;4976446;28;20308;-56
2022/05/27 01:42:32;;;;;;;20.20;3.65;;;13.20;99.90;;;;;;4987409;28;20055;-58
2022/05/27 01:45:01;;;;;;;12.95;3.08;;;13.20;99.90;;;;;;4991203;28;20041;-54
2022/05/27 01:47:36;;;;;;;13.88;2.78;;;13.20;99.90;;;;;;4978317;28;20377;-56
2022/05/27 01:50:11;;;;;;;11.65;3.00;;;13.20;99.90;;;;;;4996326;28;20042;-57
2022/05/27 01:52:44;;;;;;;13.88;2.72;;;13.20;99.90;;;;;;4985676;28;20069;-57
2022/05/27 01:55:16;;;;;;;9.98;2.40;;;13.20;99.90;;;;;;4988746;28;20058;-57
2022/05/27 01:58:02;;;;;;;19.17;2.80;;;13.10;99.90;;;;;;4994560;28;20045;-55
2022/05/27 02:00:29;;;;;;;13.82;3.03;;;13.10;99.90;;;;;;4997041;28;20050;-55
2022/05/27 02:03:19;;;;;;;12.95;3.47;;;13.10;99.90;;;;;;4992925;28;20129;-55
2022/05/27 02:06:02;;;;;;;14.30;2.78;;;13.10;99.90;;;;;;4989357;28;20050;-55
2022/05/27 02:08:41;;;;;;;14.02;3.03;;;13.10;99.90;;;;;;5005459;28;20038;-57
2022/05/27 02:11:15;;;;;;;12.65;2.70;;;13.10;99.90;;;;;;4992703;28;20034;-56
2022/05/27 02:14:14;;;;;;;9.07;2.55;;;13.10;99.90;;;;;;4979520;28;20136;-56
2022/05/27 02:16:47;;;;;;;10.98;2.53;;;13.10;99.90;;;;;;4999381;28;20065;-56
2022/05/27 02:19:48;;;;;;;13.85;3.30;;;13.10;99.90;;;;;;4997762;28;20049;-56
2022/05/27 02:22:17;;;;;;;11.25;2.70;;;13.10;99.90;;;;;;4964186;28;21404;-56
2022/05/27 02:24:46;;;;;;;9.98;2.60;;;13.00;99.90;;;;;;4995111;28;20247;-56
2022/05/27 02:27:18;;;;;;;12.02;2.95;;;13.00;99.90;;;;;;4996456;28;20306;-56
2022/05/27 02:29:50;;;;;;;19.30;3.38;;;13.00;99.90;;;;;;4996069;28;20038;-54
2022/05/27 02:32:21;;;;;;;14.38;3.05;;;13.00;99.90;;;;;;5000379;28;20040;-57
2022/05/27 02:35:08;;;;;;;9.65;2.55;;;12.90;99.90;;;;;;5003781;28;20085;-53
2022/05/27 02:37:46;;;;;;;17.58;3.22;;;12.90;99.90;;;;;;4997048;28;20215;-53
2022/05/27 02:40:22;;;;;;;12.15;3.65;;;12.90;99.90;;;;;;4995192;28;20060;-55
2022/05/27 02:43:14;;;;;;;13.65;2.88;;;12.80;99.90;;;;;;4977566;28;20695;-53
2022/05/27 02:46:02;;;;;;;14.63;3.30;;;12.80;99.90;;;;;;4980122;28;20045;-56
2022/05/27 02:49:03;;;;;;;12.40;2.90;;;12.80;99.90;;;;;;5000151;28;20088;-56
2022/05/27 02:51:43;;;;;;;18.10;3.03;;;12.70;99.90;;;;;;4948144;28;20081;-55
2022/05/27 02:54:28;;;;;;;11.00;2.90;;;12.70;99.90;;;;;;4999627;28;20041;-53
2022/05/27 02:57:06;;;;;;;8.65;2.20;;;12.70;99.90;;;;;;5010961;28;20465;-54
2022/05/27 02:59:34;;;;;;;9.63;2.80;;;12.70;99.90;;;;;;4988386;28;20069;-56
2022/05/27 03:02:05;;;;;;;12.63;2.85;;;12.60;99.90;;;;;;4996094;28;20049;-55
2022/05/27 03:04:31;;;;;;;11.38;3.40;;;12.60;99.90;;;;;;5001703;28;20213;-56
2022/05/27 03:07:14;;;;;;;12.43;3.08;;;12.60;99.90;;;;;;5003308;28;20116;-56
2022/05/27 03:09:49;;;;;;;11.98;2.60;;;12.60;99.90;;;;;;4995880;28;20072;-57
2022/05/27 03:12:58;;;;;;;12.02;3.22;;;12.60;99.90;;;;;;4997897;28;20041;-57
2022/05/27 03:15:47;;;;;;;15.05;3.55;;;12.60;99.90;;;;;;4989452;28;20096;-56
2022/05/27 03:18:35;;;;;;;14.48;3.10;;;12.60;99.90;;;;;;4996085;28;20503;-56
2022/05/27 03:21:14;;;;;;;12.18;4.30;;;12.60;99.90;;;;;;4977913;28;20034;-56
2022/05/27 03:23:46;;;;;;;11.95;3.35;;;12.60;99.90;;;;;;4997395;28;20452;-55
2022/05/27 03:26:36;;;;;;;14.93;3.65;;;12.50;99.90;;;;;;4994772;28;20038;-55
2022/05/27 03:29:14;;;;;;;18.77;4.93;;;12.50;99.90;;;;;;4997484;28;20046;-56
2022/05/27 03:31:52;;;;;;;15.00;3.42;;;12.50;99.90;;;;;;5011058;28;20521;-56
2022/05/27 03:34:28;;;;;;;12.70;3.08;;;12.50;99.90;;;;;;4999697;28;20099;-57
2022/05/27 03:37:18;;;;;;;19.55;4.47;;;12.50;99.90;;;;;;4994161;28;20054;-57
2022/05/27 03:39:59;;;;;;;10.85;4.28;;;12.40;99.90;;;;;;4994821;28;20128;-56
2022/05/27 03:42:26;;;;;;;19.58;4.28;;;12.40;99.90;;;;;;4979703;28;20046;-57
2022/05/27 03:45:13;;;;;;;15.52;3.80;;;12.30;99.90;;;;;;4990862;28;20036;-57
2022/05/27 03:47:41;;;;;;;13.80;3.20;;;12.30;99.90;;;;;;4998716;28;20073;-55
2022/05/27 03:50:10;;;;;;;17.90;4.38;;;12.30;99.90;;;;;;5004678;28;20125;-57
2022/05/27 03:52:39;;;;;;;17.80;4.18;;;12.20;99.90;;;;;;4993080;28;20569;-57
2022/05/27 03:55:06;;;;;;;14.80;3.90;;;12.20;99.90;;;;;;4995481;28;20073;-56
2022/05/27 03:57:32;;;;;;;12.13;3.58;;;12.20;99.90;;;;;;5000431;28;20494;-56
2022/05/27 03:59:58;;;;;;;13.40;3.42;;;12.20;99.90;;;;;;4982414;28;20046;-56
2022/05/27 04:02:24;;;;;;;10.98;3.70;;;12.20;99.90;;;;;;4975187;28;20137;-57
2022/05/27 04:04:49;;;;;;;11.68;3.17;;;12.20;99.90;;;;;;5003572;28;20045;-57
2022/05/27 04:07:15;;;;;;;10.85;3.00;;;12.20;99.90;;;;;;4993547;28;20042;-57
2022/05/27 04:09:41;;;;;;;11.68;2.78;;;12.20;99.90;;;;;;4958005;28;20128;-56
2022/05/27 04:12:07;;;;;;;15.52;4.60;;;12.20;99.90;;;;;;4981740;28;20168;-56
2022/05/27 04:14:33;;;;;;;12.52;3.10;;;12.20;99.90;;;;;;4990845;28;20124;-56
2022/05/27 04:19:44;;;;;;;16.05;3.13;;;12.30;99.90;;;;;;4995802;28;20049;-57
2022/05/27 04:22:11;;;;;;;13.18;3.30;;;12.30;99.90;;;;;;4977060;28;20065;-55
2022/05/27 04:24:37;;;;;;;12.35;3.40;;;12.30;99.90;;;;;;4986166;28;20121;-56
2022/05/27 04:27:29;;;;;;;11.20;2.88;;;12.30;99.90;;;;;;4997668;23;20253;-59
2022/05/27 04:29:55;;;;;;;11.60;3.13;;;12.40;99.90;;;;;;4956290;28;20097;-51
2022/05/27 04:32:22;;;;;;;7.38;2.25;;;12.40;99.90;;;;;;4953785;28;20043;-55
2022/05/27 04:34:49;;;;;;;17.00;3.88;;;12.40;99.90;;;;;;4955526;28;20502;-56
2022/05/27 04:37:16;;;;;;;9.38;2.45;;;12.40;99.90;;;;;;4955966;28;20168;-55
2022/05/27 04:39:42;;;;;;;11.45;2.95;;;12.40;99.90;;;;;;4963025;28;20625;-56
2022/05/27 04:42:08;;;;;;;17.30;3.78;;;12.50;99.90;;;;;;4958922;28;20077;-55
2022/05/27 04:44:34;;;;;;;15.50;2.65;;;12.50;99.90;;;;;;4955840;28;20556;-54
2022/05/27 04:47:00;;;;;;;13.55;3.20;;;12.50;99.90;;;;;;4936800;28;20039;-56
2022/05/27 04:52:10;;;;;;;14.27;2.58;;;12.50;99.90;;;;;;4947875;28;20527;-52
2022/05/27 04:54:37;;;;;;;8.10;2.55;;;12.50;99.90;;;;;;4958552;28;20189;-57
2022/05/27 04:57:03;;;;;;;10.50;3.00;;;12.40;99.90;;;;;;4957992;28;20545;-53
2022/05/27 04:59:29;;;;;;;11.60;2.90;;;12.40;99.90;;;;;;4952644;28;20609;-57
2022/05/27 05:01:54;;;;;;;14.35;3.30;;;12.40;99.90;;;;;;4959022;28;20039;-58
2022/05/27 05:04:20;;;;;;;12.07;3.45;;;12.40;99.90;;;;;;4951981;28;20075;-54
2022/05/27 05:06:46;;;;;;;11.90;2.60;;;12.30;99.90;;;;;;4946747;28;20066;-54
2022/05/27 05:09:12;;;;;;;12.90;3.13;;;12.40;99.90;;;;;;4959215;28;20049;-57
2022/05/27 05:11:38;;;;;;;13.65;3.17;;;12.40;99.90;;;;;;4938678;28;20066;-57
2022/05/27 05:14:04;;;;;;;12.05;2.90;;;12.40;99.90;;;;;;4955278;28;20041;-57
2022/05/27 05:16:30;;;;;;;11.07;3.33;;;12.40;99.90;;;;;;4956487;28;20042;-56
2022/05/27 05:18:56;;;;;;;11.95;2.83;;;12.40;99.90;;;;;;4954772;28;20460;-57
2022/05/27 05:21:22;;;;;;;15.32;2.90;;;12.50;99.90;;;;;;4947370;28;20046;-58
2022/05/27 05:23:48;;;;;;;15.85;3.65;;;12.60;99.90;;;;;;4955771;28;20048;-53
2022/05/27 05:26:14;;;;;;;14.18;3.47;;;12.70;99.90;;;;;;4958901;28;20053;-53
2022/05/27 05:28:39;;;;;;;11.90;3.17;;;12.80;99.90;;;;;;4928409;28;20035;-56
2022/05/27 05:31:06;;;;;;;14.43;2.92;;;12.80;99.90;;;;;;4949408;28;20054;-57
2022/05/27 05:33:32;;;;;;;12.65;3.10;;;12.80;99.90;;;;;;4958705;28;20142;-55
2022/05/27 05:35:58;;;;;;;13.63;2.92;;;12.80;99.90;;;;;;4953176;28;20049;-56
2022/05/27 05:38:26;;;;;;;13.18;3.22;;;12.70;99.90;;;;;;4954366;28;20046;-56
2022/05/27 05:40:52;;;;;;;15.85;3.35;;;12.80;99.90;;;;;;4953312;28;20519;-56
2022/05/27 05:43:18;;;;;;;14.93;3.53;;;12.70;99.90;;;;;;4957547;28;20486;-57
2022/05/27 05:45:44;;;;;;;18.45;3.17;;;12.80;99.90;;;;;;4958761;28;20085;-56
2022/05/27 05:48:09;;;;;;;18.65;3.28;;;12.80;99.90;;;;;;4951463;28;20133;-56
2022/05/27 05:50:35;;;;;;;11.75;3.03;;;12.80;99.90;;;;;;4959313;28;20039;-51
2022/05/27 05:53:01;;;;;;;15.52;3.78;;;12.90;99.90;;;;;;4961342;28;21077;-57
2022/05/27 05:55:27;;;;;;;13.95;3.42;;;13.00;99.90;;;;;;4957753;28;20064;-57
2022/05/27 05:57:53;;;;;;;12.95;2.60;;;13.10;99.90;;;;;;4959224;28;20454;-59
2022/05/27 06:00:24;;;;;;;13.90;3.25;;;13.10;99.90;;;;;;4958355;28;20381;-61
2022/05/27 06:02:51;;;;;;;13.77;3.45;;;13.10;99.90;;;;;;4959876;28;20448;-59
2022/05/27 06:05:17;;;;;;;11.07;2.58;;;13.10;99.90;;;;;;4955307;28;20077;-59
2022/05/27 06:07:43;;;;;;;12.52;3.10;;;13.10;99.90;;;;;;4960375;28;20470;-57
2022/05/27 06:10:11;;;;;;;15.88;3.58;;;13.10;99.90;;;;;;4947253;28;20046;-58
2022/05/27 06:12:37;;;;;;;14.48;3.13;;;13.20;99.90;;;;;;4953767;28;20414;-59
2022/05/27 06:15:05;;;;;;;12.30;2.65;;;13.20;99.90;;;;;;4935025;28;20069;-60
2022/05/27 06:17:33;;;;;;;16.50;3.05;;;13.20;99.10;;;;;;4953956;28;20094;-56
2022/05/27 06:19:59;;;;;;;12.68;2.90;;;13.20;99.10;;;;;;4952297;28;20051;-58
2022/05/27 06:22:25;;;;;;;14.02;3.20;;;13.20;99.50;;;;;;4958881;28;20318;-59
2022/05/27 06:24:51;;;;;;;15.43;2.75;;;13.30;99.00;;;;;;4934170;28;20043;-58
2022/05/27 06:27:17;;;;;;;14.00;3.00;;;13.40;99.40;;;;;;4966405;28;20093;-60
2022/05/27 06:35:11;;;;;;;15.23;3.75;;;13.50;98.30;;;;;;4961151;28;19918;-61
2022/05/27 06:37:37;;;;;;;12.40;2.80;;;13.50;97.90;;;;;;4960464;28;20382;-60
2022/05/27 06:40:04;;;;;;;10.55;2.75;;;13.50;98.90;;;;;;4946680;28;20244;-60
2022/05/27 06:42:30;;;;;;;14.60;2.95;;;13.50;98.10;;;;;;4955523;28;20434;-57
2022/05/27 06:44:56;;;;;;;19.25;4.38;;;13.50;98.20;;;;;;4953106;28;20189;-59
2022/05/27 06:47:22;;;;;;;14.38;3.47;;;13.60;99.20;;;;;;4966430;28;20046;-60
2022/05/27 06:49:48;;;;;;;16.92;3.65;;;13.70;98.30;;;;;;4960480;28;20048;-57
2022/05/27 06:52:15;;;;;;;12.88;3.25;;;13.70;97.80;;;;;;4960332;28;20035;-58
2022/05/27 06:54:42;;;;;;;16.73;3.22;;;13.80;98.30;;;;;;4967943;28;20042;-61
2022/05/27 06:57:08;;;;;;;12.02;3.08;;;13.60;97.70;;;;;;4958791;28;20136;-62
2022/05/27 06:59:34;;;;;;;17.33;3.10;;;13.70;98.10;;;;;;4950158;28;20035;-58
2022/05/27 07:02:01;;;;;;;12.43;2.67;;;13.70;98.50;;;;;;4960708;28;20092;-57
2022/05/27 07:04:27;;;;;;;13.35;3.05;;;13.70;99.30;;;;;;4958984;28;20035;-61
2022/05/27 07:06:53;;;;;;;15.45;3.38;;;13.70;98.20;;;;;;4952757;28;20055;-61
2022/05/27 07:09:21;;;;;;;15.60;3.50;;;13.80;98.30;;;;;;4938768;28;20449;-58
2022/05/27 07:11:50;;;;;;;11.93;3.22;;;13.70;98.40;;;;;;4956233;28;20066;-56
2022/05/27 07:14:17;;;;;;;16.30;3.78;;;14.00;99.20;;;;;;4956287;28;20104;-57
2022/05/27 07:16:45;;;;;;;14.73;3.08;;;14.10;98.00;;;;;;4940277;28;20057;-59
2022/05/27 07:19:11;;;;;;;10.98;3.08;;;14.10;98.40;;;;;;4957222;28;20074;-58
2022/05/27 07:21:39;;;;;;;13.52;3.22;;;14.00;98.60;;;;;;4960445;28;20043;-59
2022/05/27 07:24:10;;;;;;;15.57;3.05;;;13.90;98.90;;;;;;4959515;28;20051;-59
2022/05/27 07:26:38;;;;;;;14.73;2.97;;;13.80;99.70;;;;;;4963098;28;20057;-58
2022/05/27 07:29:05;;;;;;;16.30;3.20;;;13.80;99.90;;;;;;4956228;28;20035;-58
2022/05/27 07:31:31;;;;;;;17.23;3.58;;;13.70;99.90;;;;;;4950573;28;20575;-56
2022/05/27 07:33:58;;;;;;;15.57;3.58;;;13.60;99.90;;;;;;4960323;28;20043;-59
2022/05/27 07:36:24;;;;;;;15.07;3.42;;;13.50;99.90;;;;;;4966504;28;20046;-61
2022/05/27 07:38:52;;;;;;;18.38;4.65;;;13.20;99.90;;;;;;4940863;28;20122;-60
2022/05/27 07:41:20;;;;;;;12.32;3.00;;;13.20;99.90;;;;;;4953116;28;20148;-58
2022/05/27 07:43:46;;;;;;;17.63;3.42;;;13.30;99.90;;;;;;4939608;28;20046;-60
2022/05/27 07:46:14;;;;;;;17.00;3.65;;;13.60;99.90;;;;;;4973990;28;20055;-58
2022/05/27 07:48:40;;;;;;;14.52;3.28;;;13.80;99.60;;;;;;4961957;28;20043;-57
2022/05/27 07:51:06;;;;;;;16.20;3.25;;;13.80;97.70;;;;;;4953704;28;20130;-62
2022/05/27 07:53:32;;;;;;;15.50;4.22;;;13.90;98.20;;;;;;4952294;28;20110;-62
2022/05/27 07:55:58;;;;;;;21.83;4.70;;;13.90;98.80;;;;;;4937059;28;20704;-60
2022/05/27 07:58:24;;;;;;;13.25;3.42;;;13.90;97.90;;;;;;4959802;28;20046;-62
2022/05/27 08:00:49;;;;;;;17.75;3.75;;;13.80;97.70;;;;;;4944431;28;20042;-59
2022/05/27 08:03:18;;;;;;;13.50;4.03;;;13.80;98.20;;;;;;4928763;28;20047;-60
2022/05/27 08:05:44;;;;;;;18.73;3.58;;;13.90;98.30;;;;;;4950722;28;20050;-63
2022/05/27 08:08:10;;;;;;;17.27;4.30;;;14.00;98.90;;;;;;4941877;28;20752;-60
2022/05/27 08:10:37;;;;;;;15.32;2.80;;;13.90;99.00;;;;;;4929947;28;20047;-58
2022/05/27 08:13:04;;;;;;;15.88;3.03;;;13.80;98.80;;;;;;4952268;28;20043;-57
2022/05/27 08:15:30;;;;;;;17.20;3.80;;;13.70;98.10;;;;;;4939606;28;20413;-58
2022/05/27 08:17:56;;;;;;;12.45;2.65;;;13.80;97.20;;;;;;4941940;28;20043;-58
2022/05/27 08:20:25;;;;;;;12.90;2.40;;;13.90;97.40;;;;;;4951843;28;20105;-59
2022/05/27 08:22:53;;;;;;;14.52;3.97;;;14.00;96.90;;;;;;4950686;28;20050;-62
2022/05/27 08:25:20;;;;;;;14.95;3.00;;;14.00;97.10;;;;;;4946718;28;20152;-57
2022/05/27 08:27:46;;;;;;;16.27;3.25;;;14.10;97.10;;;;;;4959411;28;20051;-59
2022/05/27 08:30:15;;;;;;;17.17;3.28;;;14.20;97.40;;;;;;4954155;28;20510;-59
2022/05/27 08:32:41;;;;;;;15.23;3.53;;;14.40;97.80;;;;;;4953921;28;20043;-56
2022/05/27 08:38:07;;;;;;;15.68;3.58;;;14.30;97.10;;;;;;4955926;28;20043;-60
2022/05/27 08:40:54;;;;;;;14.48;3.42;;;14.40;97.40;;;;;;4971952;28;20051;-55
2022/05/27 08:43:46;;;;;;;11.40;2.80;;;14.50;96.40;;;;;;4955902;28;20066;-59
2022/05/27 08:46:19;;;;;;;13.75;3.05;;;14.50;96.20;;;;;;4972041;28;20098;-57
2022/05/27 08:48:47;;;;;;;14.77;3.60;;;14.50;95.80;;;;;;4959771;28;20078;-62
2022/05/27 08:51:25;;;;;;;13.13;3.60;;;14.60;97.30;;;;;;4948318;28;20080;-60
2022/05/27 08:53:57;;;;;;;10.82;3.15;;;14.80;96.80;;;;;;4955478;28;20051;-62
2022/05/27 08:59:40;;;;;;;17.00;3.40;;;14.80;94.30;;;;;;4960198;28;20050;-58
2022/05/27 09:02:27;;;;;;;16.50;4.05;;;14.70;95.20;;;;;;4962447;28;20047;-62
2022/05/27 09:05:06;;;;;;;16.33;3.47;;;14.50;96.00;;;;;;4932522;28;20137;-61
2022/05/27 09:07:55;;;;;;;13.07;3.47;;;14.40;96.70;;;;;;4946585;28;20514;-60
2022/05/27 09:10:56;;;;;;;14.45;3.20;;;14.30;96.50;;;;;;4951651;28;20125;-60
2022/05/27 09:13:36;;;;;;;16.77;3.33;;;14.20;96.20;;;;;;4951680;28;20051;-62
2022/05/27 09:16:14;;;;;;;15.25;2.67;;;14.50;96.40;;;;;;4941403;28;20051;-59
2022/05/27 09:19:15;;;;;;;13.32;3.35;;;14.80;94.70;;;;;;4956826;28;20118;-59
2022/05/27 09:22:02;;;;;;;14.60;3.15;;;14.60;95.00;;;;;;4938957;28;20058;-59
2022/05/27 09:24:40;;;;;;;13.48;2.75;;;14.40;96.40;;;;;;4954984;28;20486;-59
2022/05/27 09:27:14;;;;;;;14.48;3.00;;;14.50;96.50;;;;;;4957034;28;20549;-61
2022/05/27 09:29:53;;;;;;;14.18;3.58;;;14.50;96.70;;;;;;4956411;28;20073;-56
2022/05/27 09:32:30;;;;;;;14.02;2.90;;;14.60;96.80;;;;;;4944146;28;20122;-58
2022/05/27 09:35:01;;;;;;;15.27;3.08;;;14.50;96.80;;;;;;4956976;28;20043;-57
2022/05/27 09:37:33;;;;;;;13.88;3.72;;;14.40;96.80;;;;;;4956382;28;20117;-57
2022/05/27 09:40:05;;;;;;;11.05;3.28;;;14.40;96.20;;;;;;4956709;28;20038;-57
2022/05/27 09:42:38;;;;;;;16.75;3.72;;;14.40;96.30;;;;;;4960574;28;20486;-56
2022/05/27 09:45:05;;;;;;;19.33;3.53;;;14.50;96.90;;;;;;4955209;28;20046;-61
2022/05/27 09:47:33;;;;;;;15.75;4.20;;;14.40;95.90;;;;;;4941107;28;20042;-54
2022/05/27 09:50:22;;;;;;;18.23;2.78;;;14.30;96.20;;;;;;4960584;28;20509;-58
2022/05/27 09:52:50;;;;;;;14.07;3.13;;;14.30;96.30;;;;;;4959892;28;20039;-62
2022/05/27 09:55:30;;;;;;;11.48;3.03;;;14.50;96.70;;;;;;4950643;28;20551;-59
2022/05/27 09:58:01;;;;;;;16.42;3.65;;;14.80;96.00;;;;;;4959532;28;20147;-55
2022/05/27 10:00:46;;;;;;;13.70;3.70;;;15.10;95.90;;;;;;4936778;28;20034;-57
2022/05/27 10:03:33;;;;;;;10.43;2.97;;;15.00;96.10;;;;;;4961961;28;20039;-58
2022/05/27 10:06:03;;;;;;;15.20;2.58;;;14.80;96.00;;;;;;4957419;28;20066;-59
2022/05/27 10:08:53;;;;;;;14.80;3.35;;;14.80;95.80;;;;;;4972726;28;20726;-60
2022/05/27 10:11:32;;;;;;;12.50;2.65;;;14.60;96.20;;;;;;4952633;28;20038;-58
2022/05/27 10:14:19;;;;;;;11.32;3.70;;;14.60;97.40;;;;;;4945183;28;20548;-61
2022/05/27 10:16:59;;;;;;;17.35;3.67;;;14.50;96.70;;;;;;4956252;28;20520;-57
2022/05/27 10:19:26;;;;;;;13.23;2.80;;;14.50;96.70;;;;;;4954839;28;20074;-59
2022/05/27 10:21:56;;;;;;;12.23;3.30;;;14.80;97.00;;;;;;4951762;28;20069;-57
2022/05/27 10:24:35;;;;;;;17.70;3.22;;;14.90;96.00;;;;;;4959140;28;20046;-60
2022/05/27 10:27:14;;;;;;;11.80;3.60;;;14.70;95.90;;;;;;4957791;28;20121;-57
2022/05/27 10:29:55;;;;;;;12.68;3.33;;;14.60;97.00;;;;;;4991723;23;20090;-56
2022/05/27 10:32:34;;;;;;;15.18;3.92;;;14.90;97.70;;;;;;5000322;28;20048;-59
2022/05/27 10:35:02;;;;;;;14.07;2.97;;;15.40;97.90;;;;;;4991784;28;20033;-57
2022/05/27 10:37:37;;;;;;;15.50;2.95;;;15.40;97.00;;;;;;5019029;28;20037;-55
2022/05/27 10:40:02;;;;;;;16.20;3.28;;;15.00;96.20;;;;;;4981323;28;20043;-56
2022/05/27 10:42:52;;;;;;;12.65;2.88;;;14.80;96.00;;;;;;4983836;28;20041;-54
2022/05/27 10:45:22;;;;;;;17.80;4.18;;;14.80;96.30;;;;;;4983452;28;20045;-57
2022/05/27 10:48:23;;;;;;;17.23;3.63;;;14.90;96.00;;;;;;5014360;28;20044;-55
2022/05/27 10:51:31;;;;;;;15.98;3.35;;;14.70;95.20;;;;;;4985406;28;20052;-55
2022/05/27 10:54:29;;;;;;;12.50;3.00;;;14.50;96.10;;;;;;4987470;28;20108;-60
2022/05/27 11:03:20;;;;;;;15.38;3.45;;;14.30;96.50;;;;;;5008483;28;20120;-63
2022/05/27 11:06:16;;;;;;;22.83;3.60;;;14.20;96.20;;;;;;4981731;28;20131;-56
2022/05/27 11:08:58;;;;;;;10.70;2.90;;;14.40;97.60;;;;;;4996221;28;20127;-58
2022/05/27 11:11:26;;;;;;;12.57;3.65;;;14.40;97.60;;;;;;4993236;28;20667;-53
2022/05/27 11:17:23;;;;;;;16.52;3.42;;;14.20;97.30;;;;;;4996131;28;20045;-55
2022/05/27 11:20:04;;;;;;;14.15;3.00;;;14.10;98.10;;;;;;4996317;28;20100;-61
2022/05/27 11:22:42;;;;;;;13.73;3.17;;;14.30;98.00;;;;;;4996653;28;20124;-55
2022/05/27 11:25:43;;;;;;;15.77;3.50;;;14.40;97.80;;;;;;5017052;28;20041;-55
2022/05/27 11:28:20;;;;;;;16.80;3.10;;;14.60;98.40;;;;;;5005280;28;20068;-55
2022/05/27 11:31:11;;;;;;;15.85;3.50;;;14.50;97.80;;;;;;5002167;28;20088;-55
2022/05/27 11:33:58;;;;;;;13.02;3.40;;;14.50;97.60;;;;;;4994573;28;20045;-56
2022/05/27 11:36:36;;;;;;;16.67;3.38;;;14.50;97.90;;;;;;4984582;28;20132;-55
2022/05/27 11:39:20;;;;;;;14.50;3.95;;;14.00;98.00;;;;;;4996498;28;20045;-59
2022/05/27 11:41:49;;;;;;;16.33;4.05;;;13.70;98.90;;;;;;5009763;28;20068;-55
2022/05/27 11:45:01;;;;;;;12.77;2.90;;;13.80;99.90;;;;;;5003608;28;20038;-56
2022/05/27 11:47:46;;;;;;;14.25;3.22;;;14.10;99.60;;;;;;5003094;28;20068;-55
2022/05/27 11:50:53;;;;;;;14.13;3.53;;;14.50;98.50;;;;;;5006459;28;20054;-60
2022/05/27 11:53:26;;;;;;;13.48;3.38;;;14.30;97.80;;;;;;4979706;28;20500;-54
2022/05/27 11:56:15;;;;;;;14.20;2.83;;;14.10;98.10;;;;;;4996260;28;20099;-58
2022/05/27 11:59:05;;;;;;;10.77;3.13;;;14.10;98.30;;;;;;4998339;28;20050;-56
2022/05/27 12:01:47;;;;;;;13.85;2.90;;;14.20;97.80;;;;;;5003650;28;20076;-60
2022/05/27 12:04:25;;;;;;;13.50;2.92;;;14.50;98.10;;;;;;4999210;28;20447;-55
2022/05/27 12:07:18;;;;;;;16.25;3.70;;;14.40;97.10;;;;;;4976307;28;20046;-54
2022/05/27 12:10:03;;;;;;;10.48;2.92;;;14.30;98.40;;;;;;4981787;28;20045;-56
2022/05/27 12:12:34;;;;;;;14.07;3.08;;;14.40;98.40;;;;;;5000443;28;20516;-55
2022/05/27 12:15:05;;;;;;;18.83;3.88;;;14.30;98.80;;;;;;5005313;28;20041;-59
2022/05/27 12:17:48;;;;;;;13.73;3.55;;;14.30;98.60;;;;;;5008357;28;20029;-55
2022/05/27 12:20:20;;;;;;;16.70;3.15;;;14.30;99.50;;;;;;4997315;28;20034;-54
2022/05/27 12:22:49;;;;;;;12.88;2.90;;;14.90;99.00;;;;;;4989755;28;20060;-61
2022/05/27 12:25:22;;;;;;;15.65;3.72;;;15.30;97.50;;;;;;5001437;28;20048;-58
2022/05/27 12:27:50;;;;;;;18.67;3.53;;;15.30;96.80;;;;;;4999036;28;20054;-57
2022/05/27 12:30:18;;;;;;;16.63;3.50;;;15.40;97.00;;;;;;5004275;28;20041;-55
2022/05/27 12:32:47;;;;;;;11.80;3.47;;;14.80;97.10;;;;;;5001424;28;20409;-54
2022/05/27 12:35:26;;;;;;;18.40;3.35;;;14.90;98.10;;;;;;5000346;28;20088;-59
2022/05/27 12:38:00;;;;;;;13.77;3.95;;;14.60;97.70;;;;;;4990740;28;20069;-53
2022/05/27 12:40:50;;;;;;;15.88;3.88;;;14.30;98.30;;;;;;4994462;28;20096;-54
2022/05/27 12:43:23;;;;;;;11.77;2.67;;;14.30;99.70;;;;;;5003664;28;20041;-54
2022/05/27 12:45:52;;;;;;;13.00;3.25;;;14.20;99.00;;;;;;4977727;28;20040;-53
2022/05/27 12:48:28;;;;;;;18.58;4.38;;;14.10;99.30;;;;;;5005234;28;20037;-55
2022/05/27 12:51:01;;;;;;;12.65;3.35;;;14.20;99.60;;;;;;4989338;28;20520;-58
2022/05/27 12:53:49;;;;;;;10.35;2.88;;;14.10;98.70;;;;;;4996937;28;20041;-57
2022/05/27 13:02:32;;;;;;;19.25;3.40;;;14.10;99.90;;;;;;5013190;28;20057;-55
2022/05/27 13:05:00;;;;;;;16.85;3.85;;;14.80;99.60;;;;;;4998825;28;20581;-53
2022/05/27 13:07:37;;;;;;;13.82;3.00;;;15.30;98.00;;;;;;5013785;28;20045;-54
2022/05/27 13:10:18;;;;;;;14.23;3.20;;;15.00;97.00;;;;;;5017113;28;20048;-67
2022/05/27 13:12:47;;;;;;;13.20;2.92;;;15.20;96.30;;;;;;5000778;28;20603;-51
2022/05/27 13:15:54;;;;;;;16.48;3.25;;;15.30;95.20;;;;;;5004567;28;20111;-53
2022/05/27 13:18:23;;;;;;;13.63;3.70;;;15.70;95.90;;;;;;5004329;28;20403;-57
2022/05/27 13:21:09;;;;;;;7.70;2.25;;;15.80;95.30;;;;;;5025289;28;20198;-54
2022/05/27 13:23:49;;;;;;;14.52;3.00;;;15.80;93.90;;;;;;5009802;28;20034;-60
2022/05/27 13:26:38;;;;;;;14.27;2.80;;;15.60;95.40;;;;;;4993574;28;20640;-53
2022/05/27 13:29:39;;;;;;;15.02;3.13;;;15.90;96.70;;;;;;4990701;28;20484;-53
2022/05/27 13:32:11;;;;;;;14.55;3.30;;;15.80;95.00;;;;;;4984727;28;20042;-55
2022/05/27 13:34:41;;;;;;;12.93;3.60;;;15.40;96.20;;;;;;4978413;28;20139;-56
2022/05/27 13:37:35;;;;;;;17.83;4.55;;;15.00;96.30;;;;;;4999014;28;20530;-59
2022/05/27 13:40:08;;;;;;;14.93;3.42;;;14.60;98.10;;;;;;5003107;28;20053;-55
2022/05/27 13:42:46;;;;;;;15.70;3.30;;;14.60;98.20;;;;;;4974581;28;20079;-55
2022/05/27 13:45:14;;;;;;;13.15;3.20;;;15.20;98.10;;;;;;4975661;28;22935;-59
2022/05/27 13:47:55;;;;;;;16.15;3.50;;;15.40;97.10;;;;;;4952460;28;20136;-55
2022/05/27 13:50:43;;;;;;;16.83;3.10;;;15.20;97.10;;;;;;4957524;28;20503;-55